Terminal Aerodrome Forecast
Issued by NWS Wichita, KS

Home | Current Version | Previous Version | Text Only | Print | Product List | Glossary On
Versions: 1 2 3 4 5 6 7 8 9 10 11 12 13 14 15 16
000
FTUS43 KICT 061537 AAB
TAFICT
TAF AMD
KICT 061537Z 0616/0712 16021G30KT P6SM OVC010
     FM061700 17025G34KT P6SM SCT020 BKN035
     FM070000 18022G31KT P6SM VCTS SCT040CB BKN100
     FM070800 18020G30KT P6SM SCT009 BKN100=

USA.gov is the U.S. government's official web portal to all federal, state and local government web resources and services.